Flight Track Log - Related Links

Times and Time Zones

All times are in EDT time to prevent confusion due to time zone crossing. See the N1926A flight status page for this flight to view local times or setup timezone preferences in your user account.

Time Position Orientation Groundspeed Altitude Reporting Facility
EDT Latitude Longitude Course Direction KTS MPH feet Rate Location/Type
Sun 11:18:54 AM 32.3311 -86.3125 53° Northeast 164 189 5,300  Level Atlanta Center
Sun 11:19:54 AM 32.3567 -86.2714 54° Northeast 171 197 7,600 2,200 Climbing Atlanta Center
Sun 11:20:54 AM 32.3847 -86.2281 53° Northeast 166 191 9,700 1,650 Climbing Atlanta Center
Sun 11:21:00 AM 32.5126 -86.0363 56° Northeast  Level FlightAware Approximate
Sun 11:21:54 AM 32.4211 -86.1722 52° Northeast 171 197 10,900  Level Atlanta Center
Sun 11:22:00 AM 32.5476 -85.9774 53° Northeast  Level FlightAware Approximate
Sun 11:22:54 AM 32.4619 -86.1042 55° Northeast 211 243 10,900  Level Atlanta Center
Sun 11:23:00 AM 32.5838 -85.9196 53° Northeast  Level FlightAware Approximate
Sun 11:23:54 AM 32.5089 -86.0389 50° Northeast 239 275 10,900  Level Atlanta Center
Sun 11:24:00 AM 32.6200 -85.8617 53° Northeast  Level FlightAware Approximate
Sun 11:24:54 AM 32.5558 -85.9708 51° Northeast 255 293 10,900  Level Atlanta Center
Sun 11:25:54 AM 32.6008 -85.9003 53° Northeast 260 299 10,900  Level Atlanta Center
Sun 11:26:54 AM 32.6458 -85.8297 53° Northeast 266 306 10,900  Level Atlanta Center
Sun 11:27:54 AM 32.6906 -85.7617 52° Northeast 266 306 10,900  Level Atlanta Center
Sun 11:28:57 AM 32.7353 -85.6908 53° Northeast 266 306 10,900  Level Atlanta Center
Sun 11:29:57 AM 32.7800 -85.6250 51° Northeast 266 306 10,900  Level Atlanta Center
Sun 11:30:57 AM 32.8247 -85.5517 54° Northeast 266 306 10,900  Level Atlanta Center
Sun 11:31:57 AM 32.8694 -85.4806 53° Northeast 266 306 10,900  Level Atlanta Center
Sun 11:32:57 AM 32.9161 -85.4147 50° Northeast 266 306 10,900  Level Atlanta Center
Sun 11:33:57 AM 32.9608 -85.3436 53° Northeast 266 306 10,900  Level Atlanta Center
Sun 11:34:57 AM 33.0075 -85.2725 52° Northeast 271 312 10,900  Level Atlanta Center
Sun 11:35:57 AM 33.0583 -85.1986 51° Northeast 271 312 10,900  Level Atlanta Center
Sun 11:36:57 AM 33.1069 -85.1300 50° Northeast 265 305 10,900 50 Level Atlanta Center
Sun 11:37:57 AM 33.1575 -85.0636 48° Northeast 265 305 11,000 50 Climbing Atlanta Center
Sun 11:38:57 AM 33.2103 -84.9972 46° Northeast 265 305 11,000  Level Atlanta Center
Sun 11:39:57 AM 33.2525 -84.9406 48° Northeast 265 305 11,000  Level Atlanta Center
Sun 11:40:57 AM 33.3050 -84.8739 47° Northeast 265 305 11,000  Level Atlanta Center
Sun 11:41:57 AM 33.3536 -84.8097 48° Northeast 265 305 11,000  Level Atlanta Center
Sun 11:42:57 AM 33.4081 -84.7456 45° Northeast 265 305 11,000  Level Atlanta Center
Sun 11:43:57 AM 33.4731 -84.7011 30° Northeast 260 299 11,000 29 Level Atlanta Center
Sun 11:46:27 AM 33.6333 -84.5833 31° Northeast 273 314 11,100 29 Climbing Atlanta TRACON
Sun 11:47:27 AM 33.7000 -84.5333 32° Northeast 280 322 11,100 -619 Level Atlanta TRACON
Sun 11:48:33 AM 33.7333 -84.4500 64° Northeast 292 336 9,800 -1,381 Descending Atlanta TRACON
Sun 11:49:33 AM 33.7333 -84.3500 90° East 279 321 8,200 -2,263 Descending Atlanta TRACON
Sun 11:50:27 AM 33.7500 -84.2667 76° East 269 310 5,500 -2,100 Descending Atlanta TRACON
Sun 11:51:33 AM 33.7167 -84.2000 121° Southeast 233 268 4,000 -762 Descending Atlanta TRACON
Sun 11:52:33 AM 33.6667 -84.1833 164° South 208 239 3,900 -150 Descending Atlanta TRACON
Sun 11:53:33 AM 33.6500 -84.2500 253° West 209 241 3,700 -600 Descending Atlanta TRACON
Sun 11:54:33 AM 33.6500 -84.3167 270° West 176 203 2,700 -950 Descending Atlanta TRACON
Sun 11:55:33 AM 33.6500 -84.3667 270° West 155 178 1,800 -900 Descending Atlanta TRACON
Sun 11:57:00 AM 33.6333 -84.4167 245° Southwest  Level FlightAware Approximate
Sun 12:04:00 PM 33.6367 -84.4279 245° Southwest  Level Estimated
Sun 12:05:00 PM 33.6367 -84.4279 245° Southwest  Level Estimated

Login

Don't have an account? Register now (free) for customized features, flight alerts, and more!